sensor_id;sensor_type;location;lat;lon;timestamp;temperature;humidity
9723;DHT22;4900;49.306;8.500;2022-10-17T00:01:50;15.56;82.77
9723;DHT22;4900;49.306;8.500;2022-10-17T00:04:54;15.54;82.82
9723;DHT22;4900;49.306;8.500;2022-10-17T00:07:57;15.53;82.78
9723;DHT22;4900;49.306;8.500;2022-10-17T00:11:04;15.53;83.03
9723;DHT22;4900;49.306;8.500;2022-10-17T00:14:08;15.56;83.03
9723;DHT22;4900;49.306;8.500;2022-10-17T00:17:11;15.54;83.02
9723;DHT22;4900;49.306;8.500;2022-10-17T00:20:15;15.56;83.12
9723;DHT22;4900;49.306;8.500;2022-10-17T00:23:18;15.54;83.13
9723;DHT22;4900;49.306;8.500;2022-10-17T00:26:21;15.56;83.21
9723;DHT22;4900;49.306;8.500;2022-10-17T00:29:25;15.57;83.21
9723;DHT22;4900;49.306;8.500;2022-10-17T00:32:28;15.57;83.43
9723;DHT22;4900;49.306;8.500;2022-10-17T00:35:32;15.56;83.59
9723;DHT22;4900;49.306;8.500;2022-10-17T00:38:35;15.57;83.49
9723;DHT22;4900;49.306;8.500;2022-10-17T00:41:39;15.56;83.43
9723;DHT22;4900;49.306;8.500;2022-10-17T00:47:57;15.49;83.06
9723;DHT22;4900;49.306;8.500;2022-10-17T00:51:01;15.49;83.10
9723;DHT22;4900;49.306;8.500;2022-10-17T00:54:06;15.49;83.02
9723;DHT22;4900;49.306;8.500;2022-10-17T00:57:11;15.47;82.85
9723;DHT22;4900;49.306;8.500;2022-10-17T01:00:16;15.47;82.78
9723;DHT22;4900;49.306;8.500;2022-10-17T01:03:19;15.43;82.88
9723;DHT22;4900;49.306;8.500;2022-10-17T01:06:23;15.42;82.89
9723;DHT22;4900;49.306;8.500;2022-10-17T01:09:26;15.40;82.98
9723;DHT22;4900;49.306;8.500;2022-10-17T01:16:15;15.31;82.99
9723;DHT22;4900;49.306;8.500;2022-10-17T01:22:50;15.23;82.98
9723;DHT22;4900;49.306;8.500;2022-10-17T01:29:34;15.20;83.27
9723;DHT22;4900;49.306;8.500;2022-10-17T01:33:01;15.18;83.22
9723;DHT22;4900;49.306;8.500;2022-10-17T01:36:11;15.15;83.09
9723;DHT22;4900;49.306;8.500;2022-10-17T01:39:45;15.12;83.14
9723;DHT22;4900;49.306;8.500;2022-10-17T01:43:03;15.11;83.14
9723;DHT22;4900;49.306;8.500;2022-10-17T01:46:15;15.11;83.27
9723;DHT22;4900;49.306;8.500;2022-10-17T01:49:23;15.11;83.33
9723;DHT22;4900;49.306;8.500;2022-10-17T01:52:34;15.09;83.37
9723;DHT22;4900;49.306;8.500;2022-10-17T01:55:42;15.08;83.25
9723;DHT22;4900;49.306;8.500;2022-10-17T01:58:52;15.09;83.18
9723;DHT22;4900;49.306;8.500;2022-10-17T02:01:57;15.09;83.18
9723;DHT22;4900;49.306;8.500;2022-10-17T02:05:02;15.04;83.30
9723;DHT22;4900;49.306;8.500;2022-10-17T02:08:06;15.04;83.24
9723;DHT22;4900;49.306;8.500;2022-10-17T02:11:24;15.02;83.16
9723;DHT22;4900;49.306;8.500;2022-10-17T02:14:56;15.02;83.01
9723;DHT22;4900;49.306;8.500;2022-10-17T02:30:54;14.99;83.74
9723;DHT22;4900;49.306;8.500;2022-10-17T02:34:02;14.97;83.84
9723;DHT22;4900;49.306;8.500;2022-10-17T02:37:09;14.99;83.82
9723;DHT22;4900;49.306;8.500;2022-10-17T02:40:14;14.99;83.82
9723;DHT22;4900;49.306;8.500;2022-10-17T02:43:19;14.97;83.73
9723;DHT22;4900;49.306;8.500;2022-10-17T02:46:26;14.98;83.60
9723;DHT22;4900;49.306;8.500;2022-10-17T02:49:34;14.97;83.59
9723;DHT22;4900;49.306;8.500;2022-10-17T02:55:52;14.98;83.67
9723;DHT22;4900;49.306;8.500;2022-10-17T02:58:57;14.98;83.67
9723;DHT22;4900;49.306;8.500;2022-10-17T03:02:03;14.97;83.77
9723;DHT22;4900;49.306;8.500;2022-10-17T03:05:08;14.95;83.87
9723;DHT22;4900;49.306;8.500;2022-10-17T03:08:12;14.94;83.93
9723;DHT22;4900;49.306;8.500;2022-10-17T03:11:15;14.95;84.13
9723;DHT22;4900;49.306;8.500;2022-10-17T03:14:18;14.98;84.35
9723;DHT22;4900;49.306;8.500;2022-10-17T03:17:21;14.99;84.57
9723;DHT22;4900;49.306;8.500;2022-10-17T03:20:24;15.02;84.74
9723;DHT22;4900;49.306;8.500;2022-10-17T03:23:28;15.01;84.75
9723;DHT22;4900;49.306;8.500;2022-10-17T03:26:31;15.02;84.88
9723;DHT22;4900;49.306;8.500;2022-10-17T03:29:34;15.05;84.97
9723;DHT22;4900;49.306;8.500;2022-10-17T03:32:38;15.08;84.91
9723;DHT22;4900;49.306;8.500;2022-10-17T03:35:41;15.06;84.90
9723;DHT22;4900;49.306;8.500;2022-10-17T03:38:45;15.06;84.88
9723;DHT22;4900;49.306;8.500;2022-10-17T03:41:48;15.11;84.86
9723;DHT22;4900;49.306;8.500;2022-10-17T03:44:52;15.11;84.81
9723;DHT22;4900;49.306;8.500;2022-10-17T03:47:57;15.11;84.77
9723;DHT22;4900;49.306;8.500;2022-10-17T03:51:06;15.08;84.70
9723;DHT22;4900;49.306;8.500;2022-10-17T03:54:10;15.06;84.58
9723;DHT22;4900;49.306;8.500;2022-10-17T03:57:13;15.05;84.44
9723;DHT22;4900;49.306;8.500;2022-10-17T04:00:15;15.04;84.28
9723;DHT22;4900;49.306;8.500;2022-10-17T04:03:19;14.99;84.04
9723;DHT22;4900;49.306;8.500;2022-10-17T04:06:22;14.98;83.98
9723;DHT22;4900;49.306;8.500;2022-10-17T04:09:26;14.92;83.88
9723;DHT22;4900;49.306;8.500;2022-10-17T04:12:29;14.91;83.88
9723;DHT22;4900;49.306;8.500;2022-10-17T04:15:31;14.88;83.97
9723;DHT22;4900;49.306;8.500;2022-10-17T04:18:35;14.88;83.98
9723;DHT22;4900;49.306;8.500;2022-10-17T04:21:38;14.91;84.07
9723;DHT22;4900;49.306;8.500;2022-10-17T04:24:42;14.89;84.31
9723;DHT22;4900;49.306;8.500;2022-10-17T04:27:46;14.89;84.44
9723;DHT22;4900;49.306;8.500;2022-10-17T04:31:09;14.89;84.65
9723;DHT22;4900;49.306;8.500;2022-10-17T04:34:13;14.89;84.85
9723;DHT22;4900;49.306;8.500;2022-10-17T04:37:17;14.91;84.88
9723;DHT22;4900;49.306;8.500;2022-10-17T04:40:20;14.97;84.90
9723;DHT22;4900;49.306;8.500;2022-10-17T04:43:24;14.98;85.07
9723;DHT22;4900;49.306;8.500;2022-10-17T04:46:27;15.01;85.06
9723;DHT22;4900;49.306;8.500;2022-10-17T04:49:32;15.01;85.01
9723;DHT22;4900;49.306;8.500;2022-10-17T04:52:35;14.99;84.96
9723;DHT22;4900;49.306;8.500;2022-10-17T04:55:41;14.99;84.88
9723;DHT22;4900;49.306;8.500;2022-10-17T04:58:45;14.99;84.82
9723;DHT22;4900;49.306;8.500;2022-10-17T05:01:48;14.99;84.73
9723;DHT22;4900;49.306;8.500;2022-10-17T05:04:52;14.95;84.75
9723;DHT22;4900;49.306;8.500;2022-10-17T05:07:55;14.95;84.57
9723;DHT22;4900;49.306;8.500;2022-10-17T05:10:58;14.94;84.57
9723;DHT22;4900;49.306;8.500;2022-10-17T05:14:01;14.92;84.57
9723;DHT22;4900;49.306;8.500;2022-10-17T05:17:04;14.91;84.56
9723;DHT22;4900;49.306;8.500;2022-10-17T05:20:08;14.89;84.53
9723;DHT22;4900;49.306;8.500;2022-10-17T05:23:11;14.88;84.59
9723;DHT22;4900;49.306;8.500;2022-10-17T05:26:15;14.85;84.52
9723;DHT22;4900;49.306;8.500;2022-10-17T05:29:18;14.84;84.42
9723;DHT22;4900;49.306;8.500;2022-10-17T05:32:22;14.84;84.43
9723;DHT22;4900;49.306;8.500;2022-10-17T05:35:25;14.81;84.37
9723;DHT22;4900;49.306;8.500;2022-10-17T05:38:28;14.80;84.20
9723;DHT22;4900;49.306;8.500;2022-10-17T05:41:32;14.78;84.19
9723;DHT22;4900;49.306;8.500;2022-10-17T05:44:35;14.76;84.15
9723;DHT22;4900;49.306;8.500;2022-10-17T05:47:38;14.73;84.06
9723;DHT22;4900;49.306;8.500;2022-10-17T05:50:42;14.73;83.96
9723;DHT22;4900;49.306;8.500;2022-10-17T05:53:45;14.70;83.99
9723;DHT22;4900;49.306;8.500;2022-10-17T05:56:52;14.71;83.98
9723;DHT22;4900;49.306;8.500;2022-10-17T05:59:55;14.70;83.98
9723;DHT22;4900;49.306;8.500;2022-10-17T06:02:58;14.71;84.01
9723;DHT22;4900;49.306;8.500;2022-10-17T06:06:11;14.71;84.08
9723;DHT22;4900;49.306;8.500;2022-10-17T06:09:14;14.70;84.21
9723;DHT22;4900;49.306;8.500;2022-10-17T06:12:18;14.71;84.35
9723;DHT22;4900;49.306;8.500;2022-10-17T06:15:21;14.73;84.48
9723;DHT22;4900;49.306;8.500;2022-10-17T06:18:24;14.77;84.56
9723;DHT22;4900;49.306;8.500;2022-10-17T06:21:28;14.78;84.57
9723;DHT22;4900;49.306;8.500;2022-10-17T06:24:31;14.83;84.59
9723;DHT22;4900;49.306;8.500;2022-10-17T06:27:33;14.85;84.62
9723;DHT22;4900;49.306;8.500;2022-10-17T06:30:38;14.88;84.62
9723;DHT22;4900;49.306;8.500;2022-10-17T06:33:42;14.94;84.56
9723;DHT22;4900;49.306;8.500;2022-10-17T06:36:45;14.97;84.60
9723;DHT22;4900;49.306;8.500;2022-10-17T06:39:48;15.02;84.54
9723;DHT22;4900;49.306;8.500;2022-10-17T06:42:52;15.05;84.57
9723;DHT22;4900;49.306;8.500;2022-10-17T06:45:55;15.11;84.58
9723;DHT22;4900;49.306;8.500;2022-10-17T06:48:58;15.14;84.58
9723;DHT22;4900;49.306;8.500;2022-10-17T06:52:01;15.23;84.55
9723;DHT22;4900;49.306;8.500;2022-10-17T06:55:04;15.31;84.35
9723;DHT22;4900;49.306;8.500;2022-10-17T06:58:07;15.39;84.30
9723;DHT22;4900;49.306;8.500;2022-10-17T07:01:12;15.40;84.27
9723;DHT22;4900;49.306;8.500;2022-10-17T07:04:15;15.47;84.15
9723;DHT22;4900;49.306;8.500;2022-10-17T07:07:18;15.54;84.15
9723;DHT22;4900;49.306;8.500;2022-10-17T07:10:21;15.61;84.09
9723;DHT22;4900;49.306;8.500;2022-10-17T07:13:23;15.64;84.06
9723;DHT22;4900;49.306;8.500;2022-10-17T07:16:27;15.74;83.94
9723;DHT22;4900;49.306;8.500;2022-10-17T07:19:31;15.78;83.90
9723;DHT22;4900;49.306;8.500;2022-10-17T07:22:34;15.91;83.89
9723;DHT22;4900;49.306;8.500;2022-10-17T07:25:37;15.98;83.86
9723;DHT22;4900;49.306;8.500;2022-10-17T07:28:42;16.06;83.76
9723;DHT22;4900;49.306;8.500;2022-10-17T07:31:45;16.16;83.69
9723;DHT22;4900;49.306;8.500;2022-10-17T07:34:50;16.33;83.74
9723;DHT22;4900;49.306;8.500;2022-10-17T07:37:53;16.60;83.46
9723;DHT22;4900;49.306;8.500;2022-10-17T07:40:58;16.87;82.93
9723;DHT22;4900;49.306;8.500;2022-10-17T07:44:02;16.95;82.34
9723;DHT22;4900;49.306;8.500;2022-10-17T07:47:05;17.04;82.19
9723;DHT22;4900;49.306;8.500;2022-10-17T07:50:09;17.12;82.23
9723;DHT22;4900;49.306;8.500;2022-10-17T07:53:12;17.47;81.92
9723;DHT22;4900;49.306;8.500;2022-10-17T07:56:16;17.73;81.09
9723;DHT22;4900;49.306;8.500;2022-10-17T07:59:19;18.03;80.48
9723;DHT22;4900;49.306;8.500;2022-10-17T08:02:24;18.34;79.91
9723;DHT22;4900;49.306;8.500;2022-10-17T08:05:28;18.63;79.28
9723;DHT22;4900;49.306;8.500;2022-10-17T08:08:31;18.78;78.56
9723;DHT22;4900;49.306;8.500;2022-10-17T08:11:34;19.14;78.08
9723;DHT22;4900;49.306;8.500;2022-10-17T08:14:38;19.34;77.58
9723;DHT22;4900;49.306;8.500;2022-10-17T08:17:41;19.68;76.78
9723;DHT22;4900;49.306;8.500;2022-10-17T08:20:44;20.03;75.82
9723;DHT22;4900;49.306;8.500;2022-10-17T08:23:48;20.36;75.03
9723;DHT22;4900;49.306;8.500;2022-10-17T08:26:51;20.54;74.34
9723;DHT22;4900;49.306;8.500;2022-10-17T08:29:55;20.82;73.62
9723;DHT22;4900;49.306;8.500;2022-10-17T08:32:58;20.99;73.45
9723;DHT22;4900;49.306;8.500;2022-10-17T08:36:03;21.23;72.39
9723;DHT22;4900;49.306;8.500;2022-10-17T08:39:06;21.54;72.61
9723;DHT22;4900;49.306;8.500;2022-10-17T08:42:32;21.75;69.23
9723;DHT22;4900;49.306;8.500;2022-10-17T08:48:50;22.20;71.02
9723;DHT22;4900;49.306;8.500;2022-10-17T08:51:57;22.53;70.06
9723;DHT22;4900;49.306;8.500;2022-10-17T08:55:15;22.90;68.13
9723;DHT22;4900;49.306;8.500;2022-10-17T08:58:23;23.07;68.93
9723;DHT22;4900;49.306;8.500;2022-10-17T09:01:35;22.82;68.85
9723;DHT22;4900;49.306;8.500;2022-10-17T09:05:09;22.93;68.98
9723;DHT22;4900;49.306;8.500;2022-10-17T09:22:00;24.05;64.87
9723;DHT22;4900;49.306;8.500;2022-10-17T09:25:10;24.24;65.57
9723;DHT22;4900;49.306;8.500;2022-10-17T09:28:26;24.21;64.53
9723;DHT22;4900;49.306;8.500;2022-10-17T09:31:36;24.44;64.86
9723;DHT22;4900;49.306;8.500;2022-10-17T09:34:42;24.67;64.88
9723;DHT22;4900;49.306;8.500;2022-10-17T09:37:46;24.85;63.81
9723;DHT22;4900;49.306;8.500;2022-10-17T09:40:56;24.45;62.79
9723;DHT22;4900;49.306;8.500;2022-10-17T09:44:20;24.57;61.76
9723;DHT22;4900;49.306;8.500;2022-10-17T09:47:44;24.86;61.22
9723;DHT22;4900;49.306;8.500;2022-10-17T09:50:49;24.96;60.95
9723;DHT22;4900;49.306;8.500;2022-10-17T09:54:00;25.19;59.67
9723;DHT22;4900;49.306;8.500;2022-10-17T09:57:06;25.09;58.91
9723;DHT22;4900;49.306;8.500;2022-10-17T10:00:20;25.27;57.22
9723;DHT22;4900;49.306;8.500;2022-10-17T10:03:25;25.14;57.40
9723;DHT22;4900;49.306;8.500;2022-10-17T10:06:28;25.30;56.93
9723;DHT22;4900;49.306;8.500;2022-10-17T10:09:33;25.68;56.41
9723;DHT22;4900;49.306;8.500;2022-10-17T10:12:38;25.90;56.45
9723;DHT22;4900;49.306;8.500;2022-10-17T10:15:42;26.17;56.12
9723;DHT22;4900;49.306;8.500;2022-10-17T10:18:47;26.14;55.83
9723;DHT22;4900;49.306;8.500;2022-10-17T10:21:59;26.43;55.83
9723;DHT22;4900;49.306;8.500;2022-10-17T10:25:10;26.59;55.07
9723;DHT22;4900;49.306;8.500;2022-10-17T10:28:16;26.52;54.91
9723;DHT22;4900;49.306;8.500;2022-10-17T10:31:26;26.65;53.89
9723;DHT22;4900;49.306;8.500;2022-10-17T10:34:30;26.39;54.55
9723;DHT22;4900;49.306;8.500;2022-10-17T10:37:40;26.44;54.51
9723;DHT22;4900;49.306;8.500;2022-10-17T10:40:53;26.73;53.72
9723;DHT22;4900;49.306;8.500;2022-10-17T10:43:57;26.81;53.67
9723;DHT22;4900;49.306;8.500;2022-10-17T10:47:24;26.95;53.11
9723;DHT22;4900;49.306;8.500;2022-10-17T10:50:33;27.23;52.79
9723;DHT22;4900;49.306;8.500;2022-10-17T10:56:56;27.96;52.06
9723;DHT22;4900;49.306;8.500;2022-10-17T11:00:11;28.09;51.49
9723;DHT22;4900;49.306;8.500;2022-10-17T11:03:24;28.36;51.60
9723;DHT22;4900;49.306;8.500;2022-10-17T11:06:33;28.24;51.32
9723;DHT22;4900;49.306;8.500;2022-10-17T11:09:45;28.60;51.19
9723;DHT22;4900;49.306;8.500;2022-10-17T11:13:00;28.82;50.29
9723;DHT22;4900;49.306;8.500;2022-10-17T11:16:22;28.79;50.17
9723;DHT22;4900;49.306;8.500;2022-10-17T11:19:41;29.10;50.02
9723;DHT22;4900;49.306;8.500;2022-10-17T11:22:54;29.07;49.71
9723;DHT22;4900;49.306;8.500;2022-10-17T11:26:06;28.82;49.40
9723;DHT22;4900;49.306;8.500;2022-10-17T11:29:11;28.71;49.16
9723;DHT22;4900;49.306;8.500;2022-10-17T11:32:38;28.83;50.54
9723;DHT22;4900;49.306;8.500;2022-10-17T11:35:44;29.07;49.72
9723;DHT22;4900;49.306;8.500;2022-10-17T11:39:05;28.93;49.23
9723;DHT22;4900;49.306;8.500;2022-10-17T11:42:27;29.19;49.21
9723;DHT22;4900;49.306;8.500;2022-10-17T11:45:40;29.36;48.51
9723;DHT22;4900;49.306;8.500;2022-10-17T11:49:01;29.47;48.15
9723;DHT22;4900;49.306;8.500;2022-10-17T11:55:31;29.57;48.62
9723;DHT22;4900;49.306;8.500;2022-10-17T11:58:51;29.65;48.06
9723;DHT22;4900;49.306;8.500;2022-10-17T12:02:03;29.84;47.71
9723;DHT22;4900;49.306;8.500;2022-10-17T12:09:03;29.92;48.69
9723;DHT22;4900;49.306;8.500;2022-10-17T12:12:07;29.88;47.59
9723;DHT22;4900;49.306;8.500;2022-10-17T12:18:15;30.00;47.71
9723;DHT22;4900;49.306;8.500;2022-10-17T12:21:19;29.98;46.67
9723;DHT22;4900;49.306;8.500;2022-10-17T12:24:44;29.92;46.69
9723;DHT22;4900;49.306;8.500;2022-10-17T12:27:48;29.81;46.83
9723;DHT22;4900;49.306;8.500;2022-10-17T12:31:08;30.06;46.26
9723;DHT22;4900;49.306;8.500;2022-10-17T12:34:23;30.44;46.73
9723;DHT22;4900;49.306;8.500;2022-10-17T12:43:53;30.81;45.18
9723;DHT22;4900;49.306;8.500;2022-10-17T12:54:07;30.74;45.59
9723;DHT22;4900;49.306;8.500;2022-10-17T13:03:51;30.96;44.95
9723;DHT22;4900;49.306;8.500;2022-10-17T13:06:57;31.00;44.73
9723;DHT22;4900;49.306;8.500;2022-10-17T13:10:01;31.13;44.90
9723;DHT22;4900;49.306;8.500;2022-10-17T13:19:39;30.60;44.60
9723;DHT22;4900;49.306;8.500;2022-10-17T13:22:44;30.45;45.28
9723;DHT22;4900;49.306;8.500;2022-10-17T13:26:01;30.61;45.26
9723;DHT22;4900;49.306;8.500;2022-10-17T13:29:10;30.67;45.39
9723;DHT22;4900;49.306;8.500;2022-10-17T13:32:14;30.92;45.82
9723;DHT22;4900;49.306;8.500;2022-10-17T13:35:35;31.13;45.56
9723;DHT22;4900;49.306;8.500;2022-10-17T13:38:39;31.03;44.99
9723;DHT22;4900;49.306;8.500;2022-10-17T13:41:44;30.89;45.03
9723;DHT22;4900;49.306;8.500;2022-10-17T13:44:47;30.81;45.67
9723;DHT22;4900;49.306;8.500;2022-10-17T13:47:50;30.85;45.27
9723;DHT22;4900;49.306;8.500;2022-10-17T13:50:56;31.00;45.41
9723;DHT22;4900;49.306;8.500;2022-10-17T13:54:00;31.15;46.02
9723;DHT22;4900;49.306;8.500;2022-10-17T13:57:05;31.13;45.31
9723;DHT22;4900;49.306;8.500;2022-10-17T14:00:19;31.20;46.00
9723;DHT22;4900;49.306;8.500;2022-10-17T14:03:23;31.26;45.76
9723;DHT22;4900;49.306;8.500;2022-10-17T14:06:28;31.37;45.09
9723;DHT22;4900;49.306;8.500;2022-10-17T14:09:32;31.38;45.46
9723;DHT22;4900;49.306;8.500;2022-10-17T14:12:36;31.68;45.39
9723;DHT22;4900;49.306;8.500;2022-10-17T14:15:44;31.60;45.64
9723;DHT22;4900;49.306;8.500;2022-10-17T14:18:49;31.61;44.94
9723;DHT22;4900;49.306;8.500;2022-10-17T14:22:02;31.58;45.12
9723;DHT22;4900;49.306;8.500;2022-10-17T14:25:48;31.55;45.86
9723;DHT22;4900;49.306;8.500;2022-10-17T14:29:20;31.41;45.17
9723;DHT22;4900;49.306;8.500;2022-10-17T14:32:23;31.17;45.53
9723;DHT22;4900;49.306;8.500;2022-10-17T14:35:26;31.05;45.29
9723;DHT22;4900;49.306;8.500;2022-10-17T14:38:30;30.99;45.72
9723;DHT22;4900;49.306;8.500;2022-10-17T14:41:34;31.13;45.87
9723;DHT22;4900;49.306;8.500;2022-10-17T14:44:38;31.13;45.85
9723;DHT22;4900;49.306;8.500;2022-10-17T14:47:41;31.24;46.67
9723;DHT22;4900;49.306;8.500;2022-10-17T14:51:16;31.35;46.85
9723;DHT22;4900;49.306;8.500;2022-10-17T14:54:25;31.37;45.87
9723;DHT22;4900;49.306;8.500;2022-10-17T14:57:44;31.20;45.91
9723;DHT22;4900;49.306;8.500;2022-10-17T15:00:48;31.26;45.78
9723;DHT22;4900;49.306;8.500;2022-10-17T15:03:51;31.15;45.49
9723;DHT22;4900;49.306;8.500;2022-10-17T15:06:54;30.99;45.44
9723;DHT22;4900;49.306;8.500;2022-10-17T15:09:58;30.92;45.68
9723;DHT22;4900;49.306;8.500;2022-10-17T15:13:02;30.75;45.75
9723;DHT22;4900;49.306;8.500;2022-10-17T15:16:14;30.53;46.52
9723;DHT22;4900;49.306;8.500;2022-10-17T15:19:18;30.38;46.72
9723;DHT22;4900;49.306;8.500;2022-10-17T15:22:22;30.34;46.63
9723;DHT22;4900;49.306;8.500;2022-10-17T15:25:27;30.19;47.01
9723;DHT22;4900;49.306;8.500;2022-10-17T15:28:22;30.02;47.67
9723;DHT22;4900;49.306;8.500;2022-10-17T15:31:26;29.95;47.60
9723;DHT22;4900;49.306;8.500;2022-10-17T15:34:31;29.90;47.68
9723;DHT22;4900;49.306;8.500;2022-10-17T15:37:36;29.81;48.14
9723;DHT22;4900;49.306;8.500;2022-10-17T15:40:40;29.65;48.13
9723;DHT22;4900;49.306;8.500;2022-10-17T15:43:43;29.41;48.58
9723;DHT22;4900;49.306;8.500;2022-10-17T15:46:46;29.22;48.89
9723;DHT22;4900;49.306;8.500;2022-10-17T15:49:50;28.93;49.46
9723;DHT22;4900;49.306;8.500;2022-10-17T15:52:53;28.64;49.73
9723;DHT22;4900;49.306;8.500;2022-10-17T15:55:57;28.31;50.55
9723;DHT22;4900;49.306;8.500;2022-10-17T15:59:06;27.93;51.44
9723;DHT22;4900;49.306;8.500;2022-10-17T16:02:13;27.46;52.47
9723;DHT22;4900;49.306;8.500;2022-10-17T16:05:19;27.12;53.21
9723;DHT22;4900;49.306;8.500;2022-10-17T16:08:27;26.71;54.06
9723;DHT22;4900;49.306;8.500;2022-10-17T16:11:36;26.41;54.95
9723;DHT22;4900;49.306;8.500;2022-10-17T16:14:40;26.09;55.66
9723;DHT22;4900;49.306;8.500;2022-10-17T16:17:44;25.77;56.55
9723;DHT22;4900;49.306;8.500;2022-10-17T16:20:47;25.48;57.14
9723;DHT22;4900;49.306;8.500;2022-10-17T16:23:50;25.17;58.01
9723;DHT22;4900;49.306;8.500;2022-10-17T16:26:54;24.88;58.59
9723;DHT22;4900;49.306;8.500;2022-10-17T16:29:57;24.61;59.46
9723;DHT22;4900;49.306;8.500;2022-10-17T16:33:01;24.39;59.99
9723;DHT22;4900;49.306;8.500;2022-10-17T16:36:04;24.17;60.53
9723;DHT22;4900;49.306;8.500;2022-10-17T16:39:09;24.02;60.65
9723;DHT22;4900;49.306;8.500;2022-10-17T16:42:13;23.77;61.63
9723;DHT22;4900;49.306;8.500;2022-10-17T16:45:19;23.52;62.20
9723;DHT22;4900;49.306;8.500;2022-10-17T16:48:22;23.30;62.84
9723;DHT22;4900;49.306;8.500;2022-10-17T16:51:26;23.10;63.24
9723;DHT22;4900;49.306;8.500;2022-10-17T16:54:30;22.93;63.70
9723;DHT22;4900;49.306;8.500;2022-10-17T16:57:34;22.69;64.07
9723;DHT22;4900;49.306;8.500;2022-10-17T17:00:38;22.55;64.64
9723;DHT22;4900;49.306;8.500;2022-10-17T17:03:42;22.40;65.03
9723;DHT22;4900;49.306;8.500;2022-10-17T17:06:46;22.21;65.74
9723;DHT22;4900;49.306;8.500;2022-10-17T17:09:49;22.10;66.48
9723;DHT22;4900;49.306;8.500;2022-10-17T17:12:53;21.98;66.83
9723;DHT22;4900;49.306;8.500;2022-10-17T17:16:06;21.81;67.26
9723;DHT22;4900;49.306;8.500;2022-10-17T17:19:12;21.71;67.41
9723;DHT22;4900;49.306;8.500;2022-10-17T17:22:16;21.54;67.92
9723;DHT22;4900;49.306;8.500;2022-10-17T17:25:20;21.47;68.35
9723;DHT22;4900;49.306;8.500;2022-10-17T17:28:24;21.34;68.64
9723;DHT22;4900;49.306;8.500;2022-10-17T17:31:31;21.26;68.97
9723;DHT22;4900;49.306;8.500;2022-10-17T17:34:35;21.14;69.18
9723;DHT22;4900;49.306;8.500;2022-10-17T17:37:39;21.04;69.46
9723;DHT22;4900;49.306;8.500;2022-10-17T17:40:45;20.95;69.78
9723;DHT22;4900;49.306;8.500;2022-10-17T17:43:48;20.88;70.07
9723;DHT22;4900;49.306;8.500;2022-10-17T17:46:51;20.82;70.37
9723;DHT22;4900;49.306;8.500;2022-10-17T17:49:54;20.76;70.50
9723;DHT22;4900;49.306;8.500;2022-10-17T17:52:58;20.72;70.55
9723;DHT22;4900;49.306;8.500;2022-10-17T17:56:06;20.67;70.47
9723;DHT22;4900;49.306;8.500;2022-10-17T17:59:11;20.61;70.72
9723;DHT22;4900;49.306;8.500;2022-10-17T18:02:14;20.55;70.88
9723;DHT22;4900;49.306;8.500;2022-10-17T18:05:18;20.51;71.17
9723;DHT22;4900;49.306;8.500;2022-10-17T18:08:21;20.51;72.00
9723;DHT22;4900;49.306;8.500;2022-10-17T18:11:25;20.57;72.25
9723;DHT22;4900;49.306;8.500;2022-10-17T18:14:29;20.58;72.41
9723;DHT22;4900;49.306;8.500;2022-10-17T18:17:32;20.58;72.40
9723;DHT22;4900;49.306;8.500;2022-10-17T18:20:41;20.65;72.25
9723;DHT22;4900;49.306;8.500;2022-10-17T18:23:46;20.68;72.23
9723;DHT22;4900;49.306;8.500;2022-10-17T18:26:49;20.65;72.46
9723;DHT22;4900;49.306;8.500;2022-10-17T18:29:55;20.69;72.51
9723;DHT22;4900;49.306;8.500;2022-10-17T18:32:58;20.71;72.50
9723;DHT22;4900;49.306;8.500;2022-10-17T18:36:03;20.71;72.32
9723;DHT22;4900;49.306;8.500;2022-10-17T18:39:07;20.67;72.06
9723;DHT22;4900;49.306;8.500;2022-10-17T18:42:10;20.61;72.12
9723;DHT22;4900;49.306;8.500;2022-10-17T18:45:13;20.58;72.38
9723;DHT22;4900;49.306;8.500;2022-10-17T18:48:17;20.54;72.58
9723;DHT22;4900;49.306;8.500;2022-10-17T18:51:22;20.49;72.84
9723;DHT22;4900;49.306;8.500;2022-10-17T18:54:26;20.44;72.68
9723;DHT22;4900;49.306;8.500;2022-10-17T18:57:29;20.40;72.34
9723;DHT22;4900;49.306;8.500;2022-10-17T19:00:33;20.34;72.65
9723;DHT22;4900;49.306;8.500;2022-10-17T19:03:36;20.27;73.05
9723;DHT22;4900;49.306;8.500;2022-10-17T19:06:40;20.21;73.63
9723;DHT22;4900;49.306;8.500;2022-10-17T19:09:42;20.19;73.88
9723;DHT22;4900;49.306;8.500;2022-10-17T19:12:46;20.14;74.02
9723;DHT22;4900;49.306;8.500;2022-10-17T19:15:49;20.10;74.11
9723;DHT22;4900;49.306;8.500;2022-10-17T19:19:05;20.03;74.39
9723;DHT22;4900;49.306;8.500;2022-10-17T19:22:08;19.95;74.70
9723;DHT22;4900;49.306;8.500;2022-10-17T19:25:12;19.90;74.80
9723;DHT22;4900;49.306;8.500;2022-10-17T19:28:15;19.86;74.92
9723;DHT22;4900;49.306;8.500;2022-10-17T19:31:20;19.83;75.06
9723;DHT22;4900;49.306;8.500;2022-10-17T19:34:24;19.78;75.15
9723;DHT22;4900;49.306;8.500;2022-10-17T19:37:28;19.68;75.37
9723;DHT22;4900;49.306;8.500;2022-10-17T19:40:32;19.64;75.47
9723;DHT22;4900;49.306;8.500;2022-10-17T19:43:38;19.58;75.53
9723;DHT22;4900;49.306;8.500;2022-10-17T19:46:42;19.50;75.47
9723;DHT22;4900;49.306;8.500;2022-10-17T19:49:48;19.46;75.62
9723;DHT22;4900;49.306;8.500;2022-10-17T19:52:51;19.43;75.70
9723;DHT22;4900;49.306;8.500;2022-10-17T19:55:57;19.40;75.75
9723;DHT22;4900;49.306;8.500;2022-10-17T19:59:04;19.39;75.78
9723;DHT22;4900;49.306;8.500;2022-10-17T20:02:11;19.39;75.74
9723;DHT22;4900;49.306;8.500;2022-10-17T20:05:14;19.37;75.68
9723;DHT22;4900;49.306;8.500;2022-10-17T20:08:18;19.31;75.72
9723;DHT22;4900;49.306;8.500;2022-10-17T20:11:26;19.27;75.70
9723;DHT22;4900;49.306;8.500;2022-10-17T20:14:30;19.24;75.94
9723;DHT22;4900;49.306;8.500;2022-10-17T20:17:33;19.23;75.87
9723;DHT22;4900;49.306;8.500;2022-10-17T20:20:37;19.18;76.08
9723;DHT22;4900;49.306;8.500;2022-10-17T20:23:40;19.18;76.15
9723;DHT22;4900;49.306;8.500;2022-10-17T20:26:45;19.13;76.18
9723;DHT22;4900;49.306;8.500;2022-10-17T20:29:48;19.09;76.26
9723;DHT22;4900;49.306;8.500;2022-10-17T20:32:51;19.04;76.33
9723;DHT22;4900;49.306;8.500;2022-10-17T20:35:54;19.00;76.42
9723;DHT22;4900;49.306;8.500;2022-10-17T20:38:58;18.96;76.67
9723;DHT22;4900;49.306;8.500;2022-10-17T20:42:01;18.93;76.79
9723;DHT22;4900;49.306;8.500;2022-10-17T20:45:05;18.86;76.87
9723;DHT22;4900;49.306;8.500;2022-10-17T20:48:14;18.85;77.02
9723;DHT22;4900;49.306;8.500;2022-10-17T20:51:17;18.81;77.42
9723;DHT22;4900;49.306;8.500;2022-10-17T20:54:20;18.76;77.80
9723;DHT22;4900;49.306;8.500;2022-10-17T20:57:24;18.75;77.94
9723;DHT22;4900;49.306;8.500;2022-10-17T21:00:27;18.72;77.99
9723;DHT22;4900;49.306;8.500;2022-10-17T21:03:34;18.68;78.03
9723;DHT22;4900;49.306;8.500;2022-10-17T21:06:38;18.67;78.25
9723;DHT22;4900;49.306;8.500;2022-10-17T21:09:41;18.65;78.34
9723;DHT22;4900;49.306;8.500;2022-10-17T21:12:45;18.65;78.28
9723;DHT22;4900;49.306;8.500;2022-10-17T21:15:48;18.64;78.29
9723;DHT22;4900;49.306;8.500;2022-10-17T21:18:52;18.58;78.27
9723;DHT22;4900;49.306;8.500;2022-10-17T21:21:55;18.54;78.29
9723;DHT22;4900;49.306;8.500;2022-10-17T21:24:58;18.53;78.38
9723;DHT22;4900;49.306;8.500;2022-10-17T21:28:02;18.48;78.70
9723;DHT22;4900;49.306;8.500;2022-10-17T21:31:17;18.50;78.82
9723;DHT22;4900;49.306;8.500;2022-10-17T21:34:21;18.51;78.93
9723;DHT22;4900;49.306;8.500;2022-10-17T21:37:29;18.50;78.99
9723;DHT22;4900;49.306;8.500;2022-10-17T21:40:32;18.46;78.91
9723;DHT22;4900;49.306;8.500;2022-10-17T21:43:37;18.44;78.88